Time;durP1;ratioP1;P1;durP2;ratioP2;P2;SDS_P1;SDS_P2;PMS_P1;PMS_P2;Temp;Humidity;BMP_temperature;BMP_pressure;BME280_temperature;BME280_humidity;BME280_pressure;Samples;Min_cycle;Max_cycle;Signal;HPM_P1;HPM_P2
2022/04/04 00:03:20;;;;;;;10.13;4.30;;;;;;;2.91;65.22;100366.41;10255597;29;20246;-72
2022/04/04 00:08:24;;;;;;;9.63;4.27;;;;;;;2.77;64.73;100361.81;10255772;28;20228;-73
2022/04/04 00:13:27;;;;;;;10.90;4.63;;;;;;;2.67;64.84;100354.78;10256031;29;20220;-64
2022/04/04 00:18:32;;;;;;;11.37;4.20;;;;;;;2.66;65.48;100348.78;10254968;29;20236;-63
2022/04/04 00:23:35;;;;;;;11.20;4.27;;;;;;;2.55;65.76;100357.94;10256049;29;20242;-76
2022/04/04 00:28:38;;;;;;;11.10;3.97;;;;;;;2.72;64.65;100355.72;10257846;28;20329;-75
2022/04/04 00:33:43;;;;;;;11.30;4.63;;;;;;;2.77;63.84;100346.44;10257893;29;20212;-71
2022/04/04 00:38:47;;;;;;;10.47;3.60;;;;;;;2.73;62.48;100348.06;10257771;29;20220;-74
2022/04/04 00:43:51;;;;;;;9.67;4.03;;;;;;;2.65;63.79;100341.94;10257547;29;20230;-71
2022/04/04 00:48:56;;;;;;;9.10;4.20;;;;;;;2.62;64.31;100351.25;10257283;29;20224;-72
2022/04/04 00:53:59;;;;;;;11.37;4.23;;;;;;;2.56;63.99;100343.41;10257103;28;20208;-71
2022/04/04 00:59:05;;;;;;;10.43;4.37;;;;;;;2.53;65.25;100335.69;10258674;29;20224;-70
2022/04/04 01:04:11;;;;;;;9.67;4.30;;;;;;;2.49;64.48;100331.31;10256684;29;20327;-73
2022/04/04 01:09:15;;;;;;;10.10;4.13;;;;;;;2.45;65.42;100335.50;10256774;29;20309;-70
2022/04/04 01:14:18;;;;;;;9.10;4.10;;;;;;;2.38;64.83;100330.25;10256853;29;20301;-71
2022/04/04 01:19:23;;;;;;;8.33;3.93;;;;;;;2.23;65.93;100326.50;10256291;28;20693;-72
2022/04/04 01:24:28;;;;;;;10.00;4.37;;;;;;;2.18;63.34;100319.53;10256346;29;20310;-75
2022/04/04 01:29:32;;;;;;;8.90;4.07;;;;;;;2.21;64.24;100312.81;10258910;29;20319;-72
2022/04/04 01:34:36;;;;;;;12.43;4.83;;;;;;;2.13;65.31;100316.03;10256260;29;20224;-70
2022/04/04 01:39:41;;;;;;;10.93;4.00;;;;;;;2.06;65.76;100315.03;10256387;28;20316;-70
2022/04/04 01:44:44;;;;;;;9.67;4.20;;;;;;;1.99;67.56;100305.47;10264126;29;20731;-71
2022/04/04 01:49:47;;;;;;;10.30;4.37;;;;;;;1.95;64.99;100305.38;10263777;29;20238;-71
2022/04/04 01:54:53;;;;;;;10.40;4.43;;;;;;;1.86;65.52;100290.69;10263928;28;20220;-73
2022/04/04 01:59:57;;;;;;;9.27;3.80;;;;;;;1.85;64.78;100291.50;10266830;28;20228;-72
2022/04/04 02:05:00;;;;;;;8.53;4.23;;;;;;;1.74;65.23;100280.16;10265237;29;20228;-70
2022/04/04 02:10:06;;;;;;;9.20;4.33;;;;;;;1.74;65.84;100272.50;10263552;28;20235;-73
2022/04/04 02:15:10;;;;;;;11.57;4.80;;;;;;;1.77;64.99;100270.00;10263265;29;20220;-70
2022/04/04 02:20:14;;;;;;;11.50;4.47;;;;;;;1.69;65.29;100274.03;10262827;28;20408;-75
2022/04/04 02:25:18;;;;;;;10.40;4.17;;;;;;;1.69;65.95;100268.09;10262575;29;20230;-72
2022/04/04 02:30:21;;;;;;;10.27;4.30;;;;;;;1.55;64.54;100269.44;10262390;29;20647;-72
2022/04/04 02:35:26;;;;;;;9.63;4.30;;;;;;;1.55;65.85;100277.13;10264892;29;20224;-69
2022/04/04 02:40:33;;;;;;;9.60;4.60;;;;;;;1.51;66.40;100263.38;10262021;28;20628;-74
2022/04/04 02:45:37;;;;;;;12.37;4.57;;;;;;;1.51;67.58;100255.72;10262309;29;20224;-73
2022/04/04 02:50:41;;;;;;;10.93;4.07;;;;;;;1.39;66.43;100247.75;10261322;28;20561;-73
2022/04/04 03:01:07;;;;;;;11.73;4.93;;;;;;;1.41;67.53;100241.00;10261367;29;20224;-69
2022/04/04 03:06:10;;;;;;;11.30;5.00;;;;;;;1.35;68.13;100245.09;10263235;29;20228;-72
2022/04/04 03:11:16;;;;;;;9.07;4.30;;;;;;;1.20;68.31;100243.00;10260789;29;20656;-72
2022/04/04 03:16:19;;;;;;;10.33;5.03;;;;;;;1.23;68.00;100247.31;10260929;29;20239;-69
2022/04/04 03:21:23;;;;;;;10.80;5.47;;;;;;;1.16;68.05;100243.75;10260785;29;20678;-72
2022/04/04 03:26:31;;;;;;;9.77;4.87;;;;;;;1.13;68.33;100230.91;10260575;28;20216;-73
2022/04/04 03:31:34;;;;;;;12.73;5.20;;;;;;;1.16;69.32;100231.84;10260251;29;20228;-72
2022/04/04 03:36:38;;;;;;;10.27;4.87;;;;;;;1.13;69.01;100228.34;10259883;29;20679;-71
2022/04/04 03:41:45;;;;;;;10.60;4.43;;;;;;;1.14;70.18;100222.41;10261548;29;20224;-69
2022/04/04 03:46:48;;;;;;;10.97;4.63;;;;;;;1.13;70.12;100233.47;10259709;29;20588;-70
2022/04/04 03:51:51;;;;;;;8.43;3.90;;;;;;;1.11;71.34;100227.44;10259510;29;20232;-71
2022/04/04 03:56:56;;;;;;;10.27;4.37;;;;;;;1.12;71.32;100227.47;10259169;29;20273;-71
2022/04/04 04:01:59;;;;;;;10.93;4.53;;;;;;;1.23;69.47;100220.06;10258716;28;20559;-72
2022/04/04 04:07:03;;;;;;;12.10;4.60;;;;;;;1.27;69.92;100208.25;10258203;29;20270;-71
2022/04/04 04:12:09;;;;;;;12.43;4.80;;;;;;;1.35;70.86;100211.88;10263143;28;20252;-75
2022/04/04 04:17:13;;;;;;;12.20;5.00;;;;;;;1.30;70.21;100210.88;10258811;29;20659;-74
2022/04/04 04:22:19;;;;;;;40.37;17.60;;;;;;;1.43;71.38;100213.78;10258162;28;20232;-72
2022/04/04 04:27:24;;;;;;;12.37;5.20;;;;;;;1.45;71.39;100214.66;10258487;28;20226;-72
2022/04/04 04:32:28;;;;;;;9.67;4.73;;;;;;;1.55;71.58;100206.38;10258394;28;20594;-71
2022/04/04 04:37:32;;;;;;;10.57;4.60;;;;;;;1.64;71.92;100198.91;10257756;29;20325;-73
2022/04/04 04:42:36;;;;;;;19.60;8.40;;;;;;;1.61;72.01;100203.97;10257390;29;20226;-71
2022/04/04 04:47:40;;;;;;;10.33;5.43;;;;;;;1.69;72.11;100199.88;10260926;29;20230;-69
2022/04/04 04:52:47;;;;;;;11.07;5.47;;;;;;;1.77;72.49;100195.81;10257401;28;20538;-73
2022/04/04 04:57:53;;;;;;;15.70;6.30;;;;;;;1.78;73.32;100202.63;10257180;28;20227;-72
2022/04/04 05:08:17;;;;;;;10.73;5.50;;;;;;;1.69;72.96;100194.75;10256879;28;20565;-72
2022/04/04 05:13:22;;;;;;;13.40;5.37;;;;;;;1.83;74.10;100206.16;10256674;28;20516;-73
2022/04/04 05:18:27;;;;;;;10.27;5.87;;;;;;;1.93;74.16;100208.09;10259673;28;20224;-69
2022/04/04 05:23:31;;;;;;;11.63;5.27;;;;;;;2.00;74.65;100209.94;10256777;28;20679;-72
2022/04/04 05:28:35;;;;;;;10.93;6.40;;;;;;;2.00;72.96;100217.63;9911526;28;10000352;-71
2022/04/04 05:33:39;;;;;;;14.23;6.47;;;;;;;2.02;74.19;100208.28;10252580;29;20713;-72
2022/04/04 05:38:42;;;;;;;11.93;5.77;;;;;;;2.07;74.35;100216.94;10252317;29;20659;-71
2022/04/04 05:43:48;;;;;;;11.30;5.93;;;;;;;2.08;76.05;100205.88;10252769;28;20251;-70
2022/04/04 05:48:51;;;;;;;12.23;5.67;;;;;;;2.07;76.87;100191.34;10252644;29;20670;-73
2022/04/04 05:53:55;;;;;;;12.30;5.80;;;;;;;2.12;81.21;100207.66;10260621;28;20307;-71
2022/04/04 05:59:00;;;;;;;11.00;6.07;;;;;;;2.26;81.73;100188.31;10252635;29;20283;-72
2022/04/04 06:04:03;;;;;;;12.03;5.87;;;;;;;2.38;83.44;100198.81;10252615;29;20759;-73
2022/04/04 06:09:07;;;;;;;12.70;6.03;;;;;;;2.55;84.45;100196.59;10252496;28;20322;-72
2022/04/04 06:14:12;;;;;;;12.80;6.97;;;;;;;2.44;86.99;100192.06;10252419;29;20238;-70
2022/04/04 06:19:16;;;;;;;11.57;6.37;;;;;;;2.22;89.32;100199.34;10252104;28;20694;-74
2022/04/04 06:24:20;;;;;;;13.07;6.80;;;;;;;2.28;90.54;100194.34;10253174;28;20220;-70
2022/04/04 06:29:25;;;;;;;14.40;8.00;;;;;;;2.27;90.55;100184.06;10258820;28;20562;-73
2022/04/04 06:34:28;;;;;;;12.47;6.40;;;;;;;2.24;93.56;100194.25;10259271;29;20244;-70
2022/04/04 06:39:32;;;;;;;19.43;8.63;;;;;;;1.97;100.00;100204.78;10258675;29;20598;-70
2022/04/04 06:44:37;;;;;;;12.93;7.67;;;;;;;1.71;100.00;100205.03;10258877;29;20216;-73
2022/04/04 06:49:40;;;;;;;15.50;8.53;;;;;;;1.84;100.00;100204.47;10257999;28;20224;-70
2022/04/04 06:54:44;;;;;;;14.60;8.80;;;;;;;2.00;100.00;100193.75;10258124;29;20691;-70
2022/04/04 06:59:49;;;;;;;16.77;8.57;;;;;;;2.03;100.00;100194.69;10261931;29;20232;-72
2022/04/04 07:04:55;;;;;;;16.03;8.63;;;;;;;2.30;100.00;100187.56;10258175;29;20235;-74
2022/04/04 07:09:58;;;;;;;14.90;8.07;;;;;;;2.39;100.00;100184.31;10257707;28;20255;-71
2022/04/04 07:15:08;;;;;;;14.63;7.30;;;;;;;2.47;100.00;100189.59;10257972;29;20937;-71
2022/04/04 07:20:12;;;;;;;14.30;8.03;;;;;;;2.62;100.00;100185.63;10257266;29;20227;-73
2022/04/04 07:25:16;;;;;;;15.00;7.80;;;;;;;2.57;100.00;100176.13;10257364;28;20220;-73
2022/04/04 07:30:23;;;;;;;13.60;7.87;;;;;;;2.61;100.00;100162.50;10260053;29;20235;-71
2022/04/04 07:35:27;;;;;;;13.00;7.90;;;;;;;2.76;99.45;100158.53;10261890;28;20212;-73
2022/04/04 07:40:30;;;;;;;13.70;6.87;;;;;;;3.00;98.60;100160.66;10258124;28;20299;-73
2022/04/04 07:45:35;;;;;;;10.70;6.43;;;;;;;3.09;96.42;100151.41;10259136;28;20226;-72
2022/04/04 07:50:45;;;;;;;13.47;6.43;;;;;;;3.43;94.91;100147.69;10259065;29;20220;-71
2022/04/04 07:55:48;;;;;;;23.80;13.33;;;;;;;3.55;90.03;100135.03;10256735;29;20246;-71
2022/04/04 08:00:54;;;;;;;13.17;7.67;;;;;;;3.62;89.62;100133.41;10255594;29;20220;-71
2022/04/04 08:05:57;;;;;;;12.70;6.83;;;;;;;3.92;88.56;100123.56;10258462;29;20685;-72
2022/04/04 08:11:02;;;;;;;13.13;7.20;;;;;;;3.85;88.37;100107.22;10255111;28;20286;-71
2022/04/04 08:16:08;;;;;;;13.40;6.73;;;;;;;3.90;88.24;100110.69;10255363;28;20341;-70
2022/04/04 08:21:15;;;;;;;15.97;6.53;;;;;;;3.92;86.83;100108.16;10255079;29;20610;-71
2022/04/04 08:26:18;;;;;;;12.17;6.40;;;;;;;3.99;85.90;100109.94;10254957;29;20230;-71
2022/04/04 08:31:23;;;;;;;12.53;6.57;;;;;;;4.20;84.64;100099.91;10254502;28;20243;-71
2022/04/04 08:36:27;;;;;;;12.00;6.03;;;;;;;4.23;81.90;100100.81;10256779;29;20215;-72
2022/04/04 08:41:33;;;;;;;12.60;6.53;;;;;;;4.43;82.68;100093.31;10254961;29;20259;-75
2022/04/04 08:46:39;;;;;;;12.07;6.67;;;;;;;4.65;80.49;100098.69;10256537;28;20216;-73
2022/04/04 08:51:43;;;;;;;11.43;6.00;;;;;;;5.08;79.57;100091.31;10256609;28;20227;-72
2022/04/04 08:56:46;;;;;;;10.97;6.10;;;;;;;5.65;77.68;100083.97;10255363;28;20732;-74
2022/04/04 09:01:51;;;;;;;10.23;5.73;;;;;;;5.36;73.70;100072.66;10253308;29;20688;-72
2022/04/04 09:06:56;;;;;;;10.50;5.93;;;;;;;5.64;74.51;100054.78;10253795;29;20286;-72
2022/04/04 09:12:07;;;;;;;11.10;5.97;;;;;;;5.66;71.86;100057.41;10257456;28;20240;-73
2022/04/04 09:17:13;;;;;;;9.60;6.10;;;;;;;5.72;71.75;100032.53;10253517;29;20215;-71
2022/04/04 09:22:19;;;;;;;10.63;6.33;;;;;;;5.89;71.50;100022.31;10253129;29;20235;-71
2022/04/04 09:27:25;;;;;;;11.07;6.70;;;;;;;6.01;71.20;100021.47;10254508;28;20299;-71
2022/04/04 09:32:38;;;;;;;19.87;6.20;;;;;;;6.21;70.02;100014.69;10255616;29;20232;-71
2022/04/04 09:37:44;;;;;;;14.17;7.30;;;;;;;6.50;68.41;100000.09;10254199;29;20570;-72
2022/04/04 09:42:58;;;;;;;8.73;5.70;;;;;;;6.79;67.97;99972.56;10256378;28;20230;-73
2022/04/04 09:48:06;;;;;;;12.70;6.23;;;;;;;6.80;67.20;99977.72;10253011;29;20226;-72
2022/04/04 09:53:13;;;;;;;9.87;5.43;;;;;;;6.85;66.48;99970.00;10252811;29;20654;-69
2022/04/04 09:58:19;;;;;;;12.90;6.33;;;;;;;8.18;63.52;99953.06;10252835;29;20729;-70
2022/04/04 10:03:24;;;;;;;11.27;5.53;;;;;;;8.25;60.94;99945.31;10257197;28;20302;-71
2022/04/04 10:08:30;;;;;;;11.47;5.63;;;;;;;8.02;62.73;99946.25;10260622;29;20228;-70
2022/04/04 10:13:34;;;;;;;10.50;6.47;;;;;;;8.39;60.37;99936.56;10260356;28;20238;-69
2022/04/04 10:18:42;;;;;;;10.83;5.47;;;;;;;8.42;59.71;99926.16;10259955;29;20224;-68
2022/04/04 10:23:49;;;;;;;10.80;5.67;;;;;;;8.18;60.43;99924.63;10259207;29;20628;-69
2022/04/04 10:29:08;;;;;;;120.83;65.67;;;;;;;9.14;59.49;99907.34;10259409;29;20220;-70
2022/04/04 10:34:15;;;;;;;9.03;5.10;;;;;;;8.87;59.17;99912.81;10259264;28;20306;-72
2022/04/04 10:39:32;;;;;;;15.00;6.93;;;;;;;8.99;58.48;99897.16;10258974;29;20339;-72
2022/04/04 10:44:58;;;;;;;9.03;5.63;;;;;;;9.15;58.81;99893.53;10259668;29;20222;-72
2022/04/04 10:55:55;;;;;;;9.40;4.20;;;;;;;8.33;58.83;99881.47;10576824;27;20589;-72
2022/04/04 11:01:01;;;;;;;8.90;4.13;;;;;;;8.80;58.13;99882.69;10579056;28;20218;-74
2022/04/04 11:11:44;;;;;;;7.47;3.27;;;;;;;8.95;56.72;99868.75;10575228;28;20253;-70
2022/04/04 11:17:41;;;;;;;6.57;3.10;;;;;;;8.66;58.23;99850.09;10580013;28;20219;-68
2022/04/04 11:22:51;;;;;;;12.00;3.90;;;;;;;9.00;56.94;99854.88;10574853;28;20242;-73
2022/04/04 11:27:57;;;;;;;9.20;3.67;;;;;;;8.60;57.63;99853.59;10574762;28;20242;-71
2022/04/04 11:33:02;;;;;;;6.73;3.40;;;;;;;8.07;59.52;99846.31;10574611;28;20275;-72
2022/04/04 11:38:07;;;;;;;7.00;3.23;;;;;;;8.23;58.79;99849.63;10574100;28;20229;-71
2022/04/04 11:43:13;;;;;;;8.57;4.13;;;;;;;8.56;57.49;99840.72;10574922;28;20229;-70
2022/04/04 11:48:23;;;;;;;7.53;3.57;;;;;;;8.51;57.86;99832.16;10580277;28;20233;-69
2022/04/04 11:53:32;;;;;;;9.37;3.90;;;;;;;8.53;57.66;99832.97;10576574;28;20239;-68
2022/04/04 11:58:47;;;;;;;9.20;4.23;;;;;;;8.34;58.20;99826.28;10576848;28;20215;-69
2022/04/04 12:03:51;;;;;;;7.80;4.80;;;;;;;8.37;59.24;99824.53;10564887;28;20210;-70
2022/04/04 12:08:57;;;;;;;9.90;4.60;;;;;;;8.94;57.78;99810.94;10548210;28;20219;-71
2022/04/04 12:14:01;;;;;;;11.90;5.57;;;;;;;9.53;56.02;99791.13;10547635;28;20611;-73
2022/04/04 12:19:05;;;;;;;9.23;5.33;;;;;;;10.61;53.62;99785.84;10550884;28;20219;-70
2022/04/04 12:29:44;;;;;;;35.60;23.27;;;;;;;10.00;53.42;99771.38;10494955;28;20254;-66
2022/04/04 12:34:59;;;;;;;9.47;5.60;;;;;;;9.36;54.99;99755.16;10546586;28;20219;-68
2022/04/04 12:40:20;;;;;;;7.23;4.57;;;;;;;10.49;52.31;99748.84;10546987;28;20271;-67
2022/04/04 12:45:25;;;;;;;17.03;9.43;;;;;;;14.35;45.21;99725.19;10545582;28;20219;-66
2022/04/04 12:50:42;;;;;;;12.97;5.77;;;;;;;15.58;41.73;99722.19;10546601;28;20294;-69
2022/04/04 12:56:03;;;;;;;10.00;5.70;;;;;;;16.46;40.45;99700.09;10545773;28;20230;-71
2022/04/04 13:01:16;;;;;;;8.50;4.77;;;;;;;15.62;41.14;99692.38;10545973;28;20537;-70
2022/04/04 13:06:21;;;;;;;9.93;5.37;;;;;;;13.84;43.61;99683.44;10503552;28;20541;-69
2022/04/04 13:11:26;;;;;;;8.10;4.60;;;;;;;15.19;42.07;99658.38;10504376;28;20247;-72
2022/04/04 13:16:32;;;;;;;16.93;11.00;;;;;;;13.74;43.44;99662.94;10544253;28;20221;-69
2022/04/04 13:21:37;;;;;;;8.53;4.47;;;;;;;13.91;42.87;99653.63;10547976;28;20223;-71
2022/04/04 13:26:45;;;;;;;7.10;4.57;;;;;;;12.02;45.03;99654.38;10545030;28;20302;-73
2022/04/04 13:31:50;;;;;;;6.63;4.20;;;;;;;11.68;47.02;99640.56;10544039;28;20227;-71
2022/04/04 13:36:53;;;;;;;8.57;4.43;;;;;;;11.22;47.84;99633.88;10544565;28;20207;-72
2022/04/04 13:41:57;;;;;;;19.53;9.50;;;;;;;10.76;48.34;99625.47;10544105;28;20294;-69
2022/04/04 13:47:01;;;;;;;10.17;5.27;;;;;;;10.49;48.07;99620.91;10544483;28;20524;-74
2022/04/04 13:52:09;;;;;;;6.70;3.97;;;;;;;9.74;48.86;99610.28;10544311;28;20234;-68
2022/04/04 13:57:13;;;;;;;8.07;3.83;;;;;;;9.55;49.74;99598.56;10544047;28;20741;-68
2022/04/04 14:02:18;;;;;;;8.17;4.10;;;;;;;9.61;49.18;99602.78;10543422;28;20622;-71
2022/04/04 14:07:22;;;;;;;7.03;4.00;;;;;;;9.39;48.84;99585.94;10543785;28;20571;-70
2022/04/04 14:12:26;;;;;;;5.93;3.23;;;;;;;9.67;48.65;99568.97;10542584;28;20227;-71
2022/04/04 14:17:32;;;;;;;6.40;3.10;;;;;;;9.64;47.97;99564.72;10543729;28;20686;-71
2022/04/04 14:22:36;;;;;;;5.07;2.73;;;;;;;9.69;48.02;99559.44;10543261;28;20228;-70
2022/04/04 14:27:39;;;;;;;6.77;3.20;;;;;;;9.40;48.67;99553.97;10542732;28;20223;-70
2022/04/04 14:32:46;;;;;;;7.60;3.80;;;;;;;9.11;50.30;99557.06;10542807;28;20279;-72
2022/04/04 14:37:50;;;;;;;7.60;3.70;;;;;;;9.08;50.39;99529.50;10542785;28;20231;-71
2022/04/04 14:42:54;;;;;;;6.27;3.20;;;;;;;9.05;50.36;99524.38;10542086;28;20219;-72
2022/04/04 14:47:59;;;;;;;6.20;3.10;;;;;;;9.05;50.92;99508.84;10544720;28;20219;-70
2022/04/04 14:53:03;;;;;;;5.67;2.80;;;;;;;9.04;50.14;99489.00;10542024;28;20647;-72
2022/04/04 14:58:26;;;;;;;5.97;3.00;;;;;;;9.02;50.86;99483.03;10542803;28;20215;-73
2022/04/04 15:03:32;;;;;;;7.60;2.80;;;;;;;8.99;50.76;99475.28;10542400;28;20735;-72
2022/04/04 15:08:35;;;;;;;6.43;2.97;;;;;;;8.73;49.45;99456.78;10541631;28;20262;-72
2022/04/04 15:13:40;;;;;;;6.10;2.50;;;;;;;8.67;50.20;99450.88;10541406;28;20227;-70
2022/04/04 15:18:44;;;;;;;5.93;2.37;;;;;;;8.69;48.97;99443.94;10546837;28;20211;-71
2022/04/04 15:23:49;;;;;;;6.70;2.57;;;;;;;8.67;48.54;99443.97;10189421;27;10000026;-73
2022/04/04 15:29:06;;;;;;;7.00;2.67;;;;;;;8.75;49.31;99431.75;10538279;28;20226;-73
2022/04/04 15:34:11;;;;;;;5.37;2.13;;;;;;;8.75;48.93;99424.00;10520641;28;20230;-73
2022/04/04 15:39:16;;;;;;;3.37;1.43;;;;;;;8.65;48.24;99411.25;10540910;28;20671;-71
2022/04/04 15:44:20;;;;;;;6.27;2.47;;;;;;;8.65;49.19;99411.25;10546065;28;20223;-72
2022/04/04 15:49:25;;;;;;;7.20;2.33;;;;;;;8.49;49.97;99394.31;10546700;28;20306;-71
2022/04/04 15:54:28;;;;;;;4.67;1.97;;;;;;;8.28;50.66;99397.25;10507087;28;20331;-70
2022/04/04 15:59:32;;;;;;;7.63;2.53;;;;;;;8.14;50.73;99394.84;10503290;28;20522;-72
2022/04/04 16:04:36;;;;;;;6.70;2.23;;;;;;;8.01;50.38;99376.09;10503130;28;20220;-71
2022/04/04 16:09:40;;;;;;;5.77;2.17;;;;;;;7.92;50.21;99371.06;10504344;28;20222;-72
2022/04/04 16:14:43;;;;;;;9.13;2.17;;;;;;;7.88;50.70;99369.44;10523003;28;20227;-71
2022/04/04 16:20:09;;;;;;;4.77;1.93;;;;;;;7.70;50.94;99346.44;10544390;28;20671;-74
2022/04/04 16:25:13;;;;;;;7.47;2.50;;;;;;;7.50;51.46;99352.78;10565189;28;20724;-70
2022/04/04 16:30:16;;;;;;;6.90;2.10;;;;;;;7.44;51.26;99340.78;10586246;28;20215;-70
2022/04/04 16:35:21;;;;;;;6.90;2.17;;;;;;;7.32;51.25;99322.03;10586199;28;20230;-70
2022/04/04 16:40:24;;;;;;;4.57;1.90;;;;;;;7.22;51.44;99325.63;10550020;28;20218;-71
2022/04/04 16:45:28;;;;;;;7.70;2.50;;;;;;;7.28;51.86;99310.06;10544539;28;20215;-65
2022/04/04 16:50:34;;;;;;;59.17;32.60;;;;;;;7.24;52.07;99314.44;10543153;28;20215;-75
2022/04/04 16:55:38;;;;;;;7.20;2.70;;;;;;;7.14;52.32;99306.81;10543022;28;20223;-65
2022/04/04 17:00:41;;;;;;;7.07;3.23;;;;;;;7.00;52.84;99302.72;10542691;28;20294;-68
2022/04/04 17:05:46;;;;;;;7.30;2.87;;;;;;;6.99;53.25;99295.81;10543810;28;20222;-71
2022/04/04 17:10:51;;;;;;;6.73;3.00;;;;;;;6.84;53.79;99293.44;10546151;28;20891;-72
2022/04/04 17:15:54;;;;;;;7.07;3.43;;;;;;;6.82;54.59;99274.56;10542940;28;20215;-72
2022/04/04 17:20:59;;;;;;;7.53;3.13;;;;;;;6.76;55.45;99276.38;10542353;28;20296;-73
2022/04/04 17:26:03;;;;;;;7.00;3.63;;;;;;;6.70;55.82;99272.13;10569432;28;20706;-72
2022/04/04 17:31:12;;;;;;;8.00;4.07;;;;;;;6.62;56.50;99267.94;10584181;28;20224;-73
2022/04/04 17:36:17;;;;;;;9.80;4.00;;;;;;;6.55;56.83;99267.16;10583999;28;20651;-75
2022/04/04 17:41:21;;;;;;;8.87;3.80;;;;;;;6.46;57.26;99262.13;10583735;28;20380;-72
2022/04/04 17:46:25;;;;;;;7.37;4.00;;;;;;;6.42;57.22;99250.13;10583493;28;20309;-73
2022/04/04 17:51:30;;;;;;;10.93;4.13;;;;;;;6.33;57.86;99234.78;10582925;28;20317;-72
2022/04/04 17:56:33;;;;;;;8.03;4.07;;;;;;;6.31;58.41;99233.94;10582759;28;20235;-70
2022/04/04 18:01:36;;;;;;;14.20;3.90;;;;;;;6.24;58.95;99229.72;10583165;28;20294;-73
2022/04/04 18:06:42;;;;;;;8.70;3.77;;;;;;;6.23;58.51;99212.56;10582524;28;20218;-72
2022/04/04 18:11:45;;;;;;;11.33;4.47;;;;;;;6.22;58.82;99212.56;10582943;28;20226;-71
2022/04/04 18:16:49;;;;;;;8.97;4.40;;;;;;;6.15;58.92;99200.63;10582379;28;20226;-72
2022/04/04 18:21:55;;;;;;;9.77;5.23;;;;;;;6.18;59.04;99205.78;10581991;28;20243;-69
2022/04/04 18:26:58;;;;;;;6.87;3.83;;;;;;;6.16;59.16;99187.72;10546252;28;20247;-72
2022/04/04 18:32:04;;;;;;;7.07;4.10;;;;;;;6.09;59.50;99185.25;10542761;28;20264;-71
2022/04/04 18:37:08;;;;;;;7.43;4.03;;;;;;;6.04;59.39;99167.25;10539255;28;20306;-74
2022/04/04 18:42:12;;;;;;;8.47;4.67;;;;;;;6.06;59.34;99157.81;10539572;28;20226;-71
2022/04/04 18:47:15;;;;;;;7.77;4.60;;;;;;;6.04;59.78;99171.59;10539318;28;20223;-73
2022/04/04 18:52:21;;;;;;;8.03;4.53;;;;;;;6.01;59.18;99143.25;10538904;28;20227;-70
2022/04/04 18:57:25;;;;;;;9.50;5.10;;;;;;;5.96;59.60;99140.75;10539612;28;20230;-70
2022/04/04 19:02:28;;;;;;;11.83;5.23;;;;;;;5.93;59.61;99125.34;10540705;28;20207;-73
2022/04/04 19:07:33;;;;;;;9.60;4.70;;;;;;;5.87;59.81;99127.16;10538807;28;20233;-72
2022/04/04 19:12:37;;;;;;;10.27;5.23;;;;;;;5.82;59.67;99117.75;10539295;28;20302;-74
2022/04/04 19:17:41;;;;;;;11.17;5.27;;;;;;;5.77;59.40;99093.75;10547246;28;20223;-72
2022/04/04 19:22:45;;;;;;;10.83;5.27;;;;;;;5.78;59.16;99097.19;10547177;28;20222;-71
2022/04/04 19:27:49;;;;;;;43.93;18.63;;;;;;;5.87;58.33;99094.50;10591127;28;20197;-73
2022/04/04 19:32:52;;;;;;;11.77;5.70;;;;;;;5.86;58.24;99079.94;10589742;28;20212;-71
2022/04/04 19:37:57;;;;;;;9.80;5.10;;;;;;;5.81;57.46;99055.94;10589081;28;20226;-72
2022/04/04 19:43:01;;;;;;;11.93;5.30;;;;;;;5.85;57.48;99067.94;10588238;28;20209;-72
2022/04/04 19:48:05;;;;;;;8.73;4.97;;;;;;;5.96;55.90;99050.63;10588147;28;20675;-73
2022/04/04 19:53:11;;;;;;;9.30;4.33;;;;;;;5.88;56.31;99037.03;10588047;28;20226;-72
2022/04/04 19:58:14;;;;;;;9.23;5.20;;;;;;;5.87;56.57;99019.84;10590259;28;20221;-72
2022/04/04 20:03:23;;;;;;;8.20;4.73;;;;;;;5.93;56.32;99026.66;10587723;28;20206;-72
2022/04/04 20:08:28;;;;;;;33.27;17.87;;;;;;;5.96;55.90;99012.00;10587394;28;20186;-67
2022/04/04 20:13:31;;;;;;;10.17;5.30;;;;;;;6.00;55.92;98997.38;10587088;28;20198;-69
2022/04/04 20:18:38;;;;;;;12.30;4.80;;;;;;;5.99;55.73;98993.94;10587529;28;20198;-72
2022/04/04 20:23:43;;;;;;;38.40;17.63;;;;;;;5.93;55.83;98990.59;10578538;28;20651;-71
2022/04/04 20:28:46;;;;;;;11.80;4.80;;;;;;;5.93;55.83;98973.44;10546635;28;20219;-73
2022/04/04 20:33:49;;;;;;;9.23;4.47;;;;;;;5.92;56.39;98968.31;10544417;28;20196;-71
2022/04/04 20:38:54;;;;;;;9.90;4.63;;;;;;;5.88;56.37;98954.63;10544408;28;20613;-72
2022/04/04 20:43:57;;;;;;;8.07;3.93;;;;;;;5.87;56.16;98941.78;10543710;28;20560;-75
2022/04/04 20:49:02;;;;;;;9.43;4.80;;;;;;;5.86;57.12;98935.78;10543427;28;20625;-72
2022/04/04 20:54:07;;;;;;;8.80;4.57;;;;;;;5.83;56.55;98921.22;10543121;28;20277;-72
2022/04/04 20:59:10;;;;;;;29.60;17.30;;;;;;;5.82;57.20;98904.09;10546525;28;20302;-73
2022/04/04 21:04:13;;;;;;;12.63;5.03;;;;;;;5.81;58.23;98916.94;10543186;28;20229;-68
2022/04/04 21:09:20;;;;;;;7.73;3.93;;;;;;;5.83;59.01;98899.78;10543298;28;20216;-71
2022/04/04 21:14:23;;;;;;;8.17;4.30;;;;;;;5.82;60.09;98901.50;10542505;28;20237;-72
2022/04/04 21:19:27;;;;;;;9.93;3.80;;;;;;;5.97;59.84;98887.53;10542431;28;20211;-71
2022/04/04 21:24:34;;;;;;;7.63;3.63;;;;;;;5.91;59.83;98877.34;10556581;28;20749;-72
2022/04/04 21:29:37;;;;;;;8.73;4.20;;;;;;;5.87;60.57;98859.41;10587455;28;20664;-71
2022/04/04 21:34:41;;;;;;;10.27;3.60;;;;;;;5.74;62.12;98871.56;10583694;28;20219;-72
2022/04/04 21:39:46;;;;;;;6.67;3.70;;;;;;;5.66;63.73;98863.94;10582990;28;20241;-71
2022/04/04 21:44:49;;;;;;;6.90;2.97;;;;;;;5.57;65.49;98847.81;10583787;28;20222;-71
2022/04/04 21:49:53;;;;;;;8.50;3.63;;;;;;;5.51;66.25;98853.88;10583515;28;20220;-70
2022/04/04 21:54:58;;;;;;;31.77;17.03;;;;;;;5.52;66.70;98841.88;10583234;28;20239;-70
2022/04/04 22:00:02;;;;;;;6.60;3.10;;;;;;;5.47;66.88;98810.22;10584378;28;20237;-70
2022/04/04 22:05:06;;;;;;;7.30;3.40;;;;;;;5.46;67.50;98799.06;10582631;28;20306;-69
2022/04/04 22:10:11;;;;;;;9.77;3.70;;;;;;;5.48;67.22;98799.91;10582531;28;20217;-70
2022/04/04 22:15:14;;;;;;;6.27;3.03;;;;;;;5.42;66.98;98778.56;10582309;28;20659;-74
2022/04/04 22:20:18;;;;;;;6.60;3.40;;;;;;;5.35;68.03;98794.97;10582082;28;20215;-72
2022/04/04 22:25:23;;;;;;;7.13;3.07;;;;;;;5.36;67.99;98773.50;10560378;28;20733;-73
2022/04/04 22:30:26;;;;;;;7.07;3.57;;;;;;;5.36;68.63;98765.78;10540436;28;20702;-70
2022/04/04 22:35:30;;;;;;;6.23;3.20;;;;;;;5.35;68.99;98758.97;10539945;28;20312;-72
2022/04/04 22:40:34;;;;;;;10.07;3.50;;;;;;;5.33;69.13;98753.00;10539990;28;20238;-72
2022/04/04 22:45:38;;;;;;;7.87;3.43;;;;;;;5.40;69.82;98754.59;10539220;28;20700;-71
2022/04/04 22:50:41;;;;;;;7.03;3.20;;;;;;;5.30;71.14;98776.16;10538824;28;20219;-71
2022/04/04 22:55:46;;;;;;;7.40;4.40;;;;;;;4.99;78.42;98759.50;10539220;28;20664;-70
2022/04/04 23:00:49;;;;;;;9.53;3.80;;;;;;;4.52;87.78;98801.19;10539806;28;20211;-70
2022/04/04 23:05:52;;;;;;;11.83;4.43;;;;;;;4.61;91.66;98768.53;10539102;28;20279;-71
2022/04/04 23:10:58;;;;;;;8.13;4.93;;;;;;;4.54;94.41;98764.34;10539000;28;20233;-71
2022/04/04 23:16:02;;;;;;;8.93;4.60;;;;;;;4.35;97.98;98750.00;10538734;28;20314;-70
2022/04/04 23:21:05;;;;;;;12.77;5.10;;;;;;;4.07;100.00;98746.03;10538901;28;20211;-67
2022/04/04 23:26:13;;;;;;;11.97;5.50;;;;;;;3.90;100.00;98736.81;10567346;28;20715;-71
2022/04/04 23:31:16;;;;;;;8.80;4.97;;;;;;;3.75;100.00;98732.66;10581997;28;20215;-69
2022/04/04 23:36:20;;;;;;;12.97;5.43;;;;;;;3.72;100.00;98729.28;10580523;28;20372;-71
2022/04/04 23:41:25;;;;;;;10.20;5.10;;;;;;;3.70;100.00;98707.91;10580222;28;20702;-73
2022/04/04 23:46:29;;;;;;;12.20;5.77;;;;;;;3.62;100.00;98704.56;10580239;28;20223;-71
2022/04/04 23:51:32;;;;;;;12.03;6.60;;;;;;;3.50;100.00;98692.72;10580191;28;20243;-72
2022/04/04 23:56:37;;;;;;;11.27;6.30;;;;;;;3.44;100.00;98697.91;10579949;28;20219;-73
